createdAt,value
2018-09-08T00:01:44.864Z,3.20
2018-09-08T00:04:13.186Z,3.23
2018-09-08T00:06:41.465Z,4.17
2018-09-08T00:10:12.720Z,3.33
2018-09-08T00:12:41.036Z,3.03
2018-09-08T00:15:14.445Z,4.17
2018-09-08T00:17:48.601Z,3.70
2018-09-08T00:20:22.153Z,3.90
2018-09-08T00:22:55.874Z,4.70
2018-09-08T00:25:30.494Z,3.77
2018-09-08T00:28:04.146Z,4.03
2018-09-08T00:30:32.441Z,4.53
2018-09-08T00:33:00.770Z,3.97
2018-09-08T00:35:29.120Z,3.00
2018-09-08T00:37:58.498Z,4.13
2018-09-08T00:40:27.933Z,4.03
2018-09-08T00:43:14.510Z,3.57
2018-09-08T00:45:46.146Z,4.15
2018-09-08T00:48:14.465Z,3.70
2018-09-08T00:50:42.770Z,4.07
2018-09-08T00:53:12.101Z,3.80
2018-09-08T00:55:40.414Z,4.33
2018-09-08T00:58:08.733Z,4.80
2018-09-08T01:00:37.087Z,4.53
2018-09-08T01:03:05.385Z,3.90
2018-09-08T01:05:33.721Z,4.70
2018-09-08T01:08:02.019Z,4.87
2018-09-08T01:10:30.333Z,4.10
2018-09-08T01:13:00.689Z,4.67
2018-09-08T01:15:29.040Z,4.00
2018-09-08T01:17:57.423Z,4.60
2018-09-08T01:20:25.764Z,4.57
2018-09-08T01:22:54.050Z,4.60
2018-09-08T01:25:23.385Z,5.13
2018-09-08T01:27:51.661Z,3.93
2018-09-08T01:30:19.993Z,4.67
2018-09-08T01:32:48.334Z,4.17
2018-09-08T01:35:16.662Z,4.60
2018-09-08T01:37:44.991Z,4.40
2018-09-08T01:40:13.301Z,4.10
2018-09-08T01:42:41.668Z,3.97
2018-09-08T01:45:09.997Z,4.67
2018-09-08T01:47:38.365Z,4.10
2018-09-08T01:50:07.798Z,3.80
2018-09-08T01:52:36.151Z,3.60
2018-09-08T01:55:04.514Z,4.37
2018-09-08T01:57:32.858Z,4.13
2018-09-08T02:00:01.165Z,3.70
2018-09-08T02:03:58.605Z,3.50
2018-09-08T02:06:26.910Z,3.90
2018-09-08T02:08:55.258Z,3.87
2018-09-08T02:11:23.561Z,3.63
2018-09-08T02:13:52.073Z,3.20
2018-09-08T02:16:20.352Z,4.30
2018-09-08T02:18:48.697Z,3.60
2018-09-08T02:21:16.982Z,4.20
2018-09-08T02:23:45.282Z,3.70
2018-09-08T02:26:13.537Z,4.00
2018-09-08T02:28:41.816Z,3.53
2018-09-08T02:31:10.093Z,3.83
2018-09-08T02:33:38.390Z,3.57
2018-09-08T02:36:06.670Z,2.83
2018-09-08T02:38:34.973Z,3.13
2018-09-08T02:41:03.228Z,3.73
2018-09-08T02:43:32.593Z,3.80
2018-09-08T02:46:00.865Z,4.73
2018-09-08T02:48:29.157Z,3.33
2018-09-08T02:50:56.356Z,3.40
2018-09-08T02:53:23.507Z,3.97
2018-09-08T02:55:50.684Z,3.27
2018-09-08T02:58:17.830Z,3.27
2018-09-08T03:00:44.997Z,3.40
2018-09-08T03:03:12.137Z,3.80
2018-09-08T03:05:39.319Z,3.70
2018-09-08T03:08:06.469Z,3.63
2018-09-08T03:10:33.660Z,3.83
2018-09-08T03:13:00.823Z,3.10
2018-09-08T03:15:28.001Z,3.80
2018-09-08T03:17:55.153Z,4.27
2018-09-08T03:20:22.321Z,3.60
2018-09-08T03:22:49.498Z,3.60
2018-09-08T03:25:16.686Z,3.60
2018-09-08T03:27:43.837Z,3.93
2018-09-08T03:30:11.022Z,3.93
2018-09-08T03:32:38.181Z,3.60
2018-09-08T03:35:05.417Z,3.37
2018-09-08T03:37:32.559Z,3.97
2018-09-08T03:39:59.710Z,4.03
2018-09-08T03:42:26.885Z,4.10
2018-09-08T03:44:54.067Z,4.77
2018-09-08T03:47:22.160Z,4.43
2018-09-08T03:49:50.262Z,4.50
2018-09-08T03:52:17.445Z,5.07
2018-09-08T03:54:44.599Z,4.43
2018-09-08T03:57:11.769Z,5.77
2018-09-08T03:59:38.921Z,4.67
2018-09-08T04:02:06.107Z,5.77
2018-09-08T04:04:35.473Z,5.60
2018-09-08T04:07:03.837Z,5.10
2018-09-08T04:09:32.123Z,5.70
2018-09-08T04:12:00.407Z,6.33
2018-09-08T04:14:28.684Z,5.57
2018-09-08T04:16:56.969Z,5.70
2018-09-08T04:19:26.241Z,6.07
2018-09-08T04:21:54.559Z,6.40
2018-09-08T04:24:22.870Z,5.70
2018-09-08T04:26:51.652Z,6.60
2018-09-08T04:29:20.012Z,6.07
2018-09-08T04:31:48.301Z,5.97
2018-09-08T04:34:16.561Z,5.97
2018-09-08T04:36:44.861Z,6.60
2018-09-08T04:39:15.249Z,6.07
2018-09-08T04:41:43.499Z,7.40
2018-09-08T04:48:59.987Z,6.37
2018-09-08T04:51:28.277Z,6.50
2018-09-08T04:53:56.585Z,6.80
2018-09-08T04:56:24.882Z,6.97
2018-09-08T04:58:55.209Z,6.93
2018-09-08T05:01:23.493Z,7.40
2018-09-08T05:03:53.827Z,7.27
2018-09-08T05:06:22.106Z,7.90
2018-09-08T05:08:50.393Z,6.70
2018-09-08T05:11:18.653Z,6.17
2018-09-08T05:13:46.950Z,6.63
2018-09-08T05:16:15.216Z,6.00
2018-09-08T05:18:43.522Z,7.27
2018-09-08T05:21:11.781Z,6.20
2018-09-08T05:23:40.094Z,5.83
2018-09-08T05:26:09.394Z,5.20
2018-09-08T05:28:37.701Z,5.00
2018-09-08T05:31:06.969Z,6.47
2018-09-08T05:33:35.241Z,4.97
2018-09-08T05:36:03.485Z,5.20
2018-09-08T05:38:31.809Z,5.27
2018-09-08T05:41:00.110Z,5.40
2018-09-08T05:43:28.403Z,5.17
2018-09-08T05:45:56.685Z,4.80
2018-09-08T05:48:24.955Z,5.13
2018-09-08T05:50:53.270Z,5.03
2018-09-08T05:53:21.565Z,5.00
2018-09-08T05:55:49.877Z,5.43
2018-09-08T05:58:18.251Z,4.80
2018-09-08T06:00:46.602Z,5.73
2018-09-08T06:03:14.896Z,5.20
2018-09-08T06:05:45.266Z,5.30
2018-09-08T06:08:13.518Z,5.00
2018-09-08T06:10:41.848Z,5.27
2018-09-08T06:13:11.201Z,5.63
2018-09-08T06:15:39.482Z,4.70
2018-09-08T06:18:07.785Z,4.53
2018-09-08T06:20:36.045Z,5.60
2018-09-08T06:23:04.328Z,5.40
2018-09-08T06:25:32.704Z,5.20
2018-09-08T06:28:01.163Z,5.50
2018-09-08T06:30:29.936Z,5.40
2018-09-08T06:32:58.222Z,5.90
2018-09-08T06:35:26.617Z,6.40
2018-09-08T06:37:55.873Z,5.70
2018-09-08T06:40:24.150Z,7.20
2018-09-08T06:42:52.461Z,6.73
2018-09-08T06:45:20.743Z,6.57
2018-09-08T06:47:50.145Z,6.07
2018-09-08T06:50:18.450Z,6.53
2018-09-08T06:52:46.741Z,6.30
2018-09-08T06:55:15.013Z,6.57
2018-09-08T06:58:46.542Z,5.70
2018-09-08T07:01:14.861Z,6.80
2018-09-08T07:03:43.729Z,5.60
2018-09-08T07:06:12.045Z,7.17
2018-09-08T07:08:41.485Z,5.80
2018-09-08T07:11:09.792Z,6.13
2018-09-08T07:13:39.159Z,5.73
2018-09-08T07:16:07.813Z,6.27
2018-09-08T07:18:36.093Z,5.80
2018-09-08T07:21:04.425Z,6.63
2018-09-08T07:23:35.849Z,5.43
2018-09-08T07:26:05.161Z,7.50
2018-09-08T07:28:33.728Z,5.57
2018-09-08T07:31:02.035Z,5.50
2018-09-08T07:33:30.685Z,6.13
2018-09-08T07:35:58.942Z,5.50
2018-09-08T07:38:27.237Z,5.60
2018-09-08T07:40:55.529Z,6.23
2018-09-08T07:43:23.785Z,5.70
2018-09-08T07:45:52.116Z,5.77
2018-09-08T07:48:20.381Z,5.57
2018-09-08T07:50:48.654Z,5.67
2018-09-08T07:53:16.936Z,5.50
2018-09-08T07:55:45.197Z,5.87
2018-09-08T07:58:13.451Z,6.00
2018-09-08T08:00:41.749Z,6.30
2018-09-08T08:03:10.032Z,5.63
2018-09-08T08:05:38.321Z,6.80
2018-09-08T08:08:06.800Z,5.30
2018-09-08T08:10:35.077Z,6.07
2018-09-08T08:13:03.356Z,5.13
2018-09-08T08:15:31.671Z,5.23
2018-09-08T08:17:59.973Z,6.00
2018-09-08T08:20:28.261Z,7.03
2018-09-08T08:22:56.510Z,4.97
2018-09-08T08:25:25.905Z,5.13
2018-09-08T08:27:54.162Z,4.90
2018-09-08T08:30:23.633Z,5.30
2018-09-08T08:32:51.916Z,5.07
2018-09-08T08:35:20.313Z,4.43
2018-09-08T08:37:48.652Z,4.83
2018-09-08T08:40:16.909Z,5.40
2018-09-08T08:42:45.201Z,6.93
2018-09-08T08:45:13.494Z,4.67
2018-09-08T08:47:41.785Z,5.90
2018-09-08T08:50:21.329Z,6.53
2018-09-08T08:53:00.649Z,5.17
2018-09-08T08:55:28.945Z,4.63
2018-09-08T08:57:57.249Z,4.97
2018-09-08T09:00:25.541Z,5.40
2018-09-08T09:02:54.919Z,5.27
2018-09-08T09:05:23.195Z,5.20
2018-09-08T09:07:51.527Z,5.00
2018-09-08T09:10:21.860Z,5.43
2018-09-08T09:12:50.199Z,4.77
2018-09-08T09:15:18.574Z,4.97
2018-09-08T09:17:46.857Z,7.30
2018-09-08T09:20:26.233Z,5.70
2018-09-08T09:23:06.269Z,5.43
2018-09-08T09:25:34.117Z,5.43
2018-09-08T09:28:02.433Z,4.93
2018-09-08T09:30:30.705Z,5.57
2018-09-08T09:32:58.985Z,5.33
2018-09-08T09:35:27.398Z,5.30
2018-09-08T09:37:55.562Z,5.40
2018-09-08T09:40:23.857Z,6.67
2018-09-08T09:42:52.125Z,5.17
2018-09-08T09:45:20.565Z,5.20
2018-09-08T09:47:48.837Z,5.10
2018-09-08T09:50:17.133Z,5.23
2018-09-08T09:52:45.479Z,5.30
2018-09-08T09:55:13.746Z,4.70
2018-09-08T09:57:43.065Z,4.40
2018-09-08T10:00:15.530Z,4.53
2018-09-08T10:02:50.513Z,4.93
2018-09-08T10:05:26.103Z,5.37
2018-09-08T10:07:55.538Z,4.67
2018-09-08T10:10:25.276Z,4.63
2018-09-08T10:12:53.552Z,4.80
2018-09-08T10:15:21.845Z,4.70
2018-09-08T10:17:50.206Z,5.30
2018-09-08T10:20:20.137Z,4.20
2018-09-08T10:22:48.433Z,3.80
2018-09-08T10:25:17.888Z,4.80
2018-09-08T10:27:47.049Z,4.80
2018-09-08T10:30:15.905Z,4.83
2018-09-08T10:32:44.980Z,5.40
2018-09-08T10:35:13.445Z,4.60
2018-09-08T10:37:41.766Z,6.03
2018-09-08T10:40:11.163Z,4.20
2018-09-08T10:42:39.425Z,4.50
2018-09-08T10:45:07.785Z,4.10
2018-09-08T10:47:36.156Z,3.93
2018-09-08T10:50:04.605Z,3.97
2018-09-08T10:52:35.262Z,4.50
2018-09-08T10:55:03.547Z,3.90
2018-09-08T10:57:31.953Z,3.43
2018-09-08T11:00:01.229Z,4.20
2018-09-08T11:02:30.037Z,3.33
2018-09-08T11:04:58.199Z,3.80
2018-09-08T11:07:26.537Z,3.93
2018-09-08T11:09:54.808Z,4.80
2018-09-08T11:12:23.171Z,2.93
2018-09-08T11:14:51.464Z,3.80
2018-09-08T11:17:19.727Z,3.57
2018-09-08T11:19:48.027Z,4.27
2018-09-08T11:22:16.320Z,4.00
2018-09-08T11:24:44.609Z,3.23
2018-09-08T11:27:12.913Z,3.30
2018-09-08T11:29:41.212Z,3.17
2018-09-08T11:32:09.489Z,2.40
2018-09-08T11:34:37.801Z,3.27
2018-09-08T11:37:06.099Z,2.43
2018-09-08T11:39:34.390Z,3.47
2018-09-08T11:42:02.657Z,2.07
2018-09-08T11:44:30.970Z,1.93
2018-09-08T11:47:00.372Z,1.60
2018-09-08T11:49:28.653Z,1.80
2018-09-08T11:51:56.901Z,2.37
2018-09-08T11:54:25.251Z,1.90
2018-09-08T11:56:54.943Z,1.90
2018-09-08T11:59:23.235Z,1.73
2018-09-08T12:01:51.595Z,1.67
2018-09-08T12:04:19.855Z,3.33
2018-09-08T12:06:48.141Z,2.10
2018-09-08T12:09:17.425Z,2.50
2018-09-08T12:11:45.710Z,2.30
2018-09-08T12:14:13.985Z,2.50
2018-09-08T12:16:42.274Z,2.10
2018-09-08T12:19:10.550Z,1.60
2018-09-08T12:21:38.836Z,2.30
2018-09-08T12:24:07.114Z,2.20
2018-09-08T12:26:35.406Z,1.60
2018-09-08T12:29:03.873Z,1.50
2018-09-08T12:31:32.171Z,1.67
2018-09-08T12:34:00.494Z,1.63
2018-09-08T12:36:28.789Z,1.90
2018-09-08T12:38:57.136Z,2.17
2018-09-08T12:41:25.365Z,2.60
2018-09-08T12:43:53.629Z,2.20
2018-09-08T12:46:22.912Z,2.10
2018-09-08T12:48:51.163Z,1.53
2018-09-08T12:51:19.481Z,1.83
2018-09-08T12:53:47.761Z,2.47
2018-09-08T12:56:16.033Z,2.20
2018-09-08T12:58:44.325Z,1.50
2018-09-08T13:01:12.657Z,1.70
2018-09-08T13:03:41.933Z,1.90
2018-09-08T13:06:10.206Z,2.33
2018-09-08T13:08:39.546Z,2.20
2018-09-08T13:11:08.258Z,2.33
2018-09-08T13:13:36.557Z,2.03
2018-09-08T13:16:04.845Z,2.80
2018-09-08T13:18:33.138Z,1.93
2018-09-08T13:21:01.404Z,2.87
2018-09-08T13:23:29.691Z,2.00
2018-09-08T13:25:57.955Z,2.57
2018-09-08T13:28:26.249Z,2.70
2018-09-08T13:30:54.537Z,2.97
2018-09-08T13:33:22.805Z,2.37
2018-09-08T13:35:51.047Z,2.30
2018-09-08T13:38:19.334Z,1.83
2018-09-08T13:40:47.618Z,2.63
2018-09-08T13:43:15.901Z,2.23
2018-09-08T13:45:44.201Z,2.63
2018-09-08T13:48:12.509Z,2.13
2018-09-08T13:50:40.744Z,2.10
2018-09-08T13:53:09.017Z,2.40
2018-09-08T13:55:37.295Z,2.45
2018-09-08T13:58:05.992Z,2.50
2018-09-08T14:00:34.305Z,2.80
2018-09-08T14:03:02.566Z,2.33
2018-09-08T14:05:30.841Z,2.70
2018-09-08T14:08:01.962Z,2.60
2018-09-08T14:10:30.271Z,2.57
2018-09-08T14:12:58.525Z,2.60
2018-09-08T14:15:26.899Z,2.43
2018-09-08T14:17:55.240Z,2.80
2018-09-08T14:20:23.546Z,2.03
2018-09-08T14:22:51.837Z,2.47
2018-09-08T14:25:20.153Z,2.20
2018-09-08T14:27:51.706Z,1.80
2018-09-08T14:30:20.569Z,2.33
2018-09-08T14:32:49.519Z,2.47
2018-09-08T14:35:17.866Z,2.37
2018-09-08T14:37:46.161Z,2.17
2018-09-08T14:40:14.473Z,2.17
2018-09-08T14:42:42.754Z,1.90
2018-09-08T14:45:11.032Z,1.83
2018-09-08T14:47:39.459Z,1.80
2018-09-08T14:50:07.654Z,1.47
2018-09-08T14:52:35.962Z,1.80
2018-09-08T14:55:04.304Z,2.20
2018-09-08T14:57:32.602Z,1.57
2018-09-08T15:00:00.869Z,1.80
2018-09-08T15:02:29.212Z,1.90
2018-09-08T15:04:57.503Z,2.00
2018-09-08T15:07:25.809Z,2.20
2018-09-08T15:09:55.088Z,1.57
2018-09-08T15:12:23.419Z,1.97
2018-09-08T15:14:51.690Z,1.80
2018-09-08T15:17:20.006Z,1.80
2018-09-08T15:19:48.604Z,1.73
2018-09-08T15:22:17.165Z,1.67
2018-09-08T15:24:45.445Z,1.70
2018-09-08T15:27:13.729Z,1.43
2018-09-08T15:29:42.001Z,2.43
2018-09-08T15:32:10.298Z,1.90
2018-09-08T15:34:38.573Z,2.27
2018-09-08T15:37:06.825Z,2.17
2018-09-08T15:39:35.132Z,2.03
2018-09-08T15:42:03.614Z,2.10
2018-09-08T15:44:31.925Z,2.43
2018-09-08T15:47:00.177Z,2.60
2018-09-08T15:49:28.454Z,2.17
2018-09-08T15:51:56.774Z,2.47
2018-09-08T15:54:25.048Z,2.70
2018-09-08T15:56:53.476Z,2.30
2018-09-08T15:59:21.852Z,2.33
2018-09-08T16:01:50.146Z,2.47
2018-09-08T16:04:19.565Z,2.50
2018-09-08T16:06:47.861Z,2.70
2018-09-08T16:09:17.252Z,1.87
2018-09-08T16:11:45.554Z,2.70
2018-09-08T16:14:14.005Z,1.97
2018-09-08T16:16:42.425Z,2.40
2018-09-08T16:19:11.753Z,2.17
2018-09-08T16:21:40.026Z,2.73
2018-09-08T16:24:08.329Z,2.20
2018-09-08T16:26:36.802Z,2.60
2018-09-08T16:29:05.126Z,2.33
2018-09-08T16:31:34.626Z,2.67
2018-09-08T16:34:02.989Z,2.80
2018-09-08T16:36:31.297Z,2.57
2018-09-08T16:38:59.613Z,2.40
2018-09-08T16:41:27.917Z,2.90
2018-09-08T16:43:56.205Z,3.03
2018-09-08T16:46:24.553Z,2.10
2018-09-08T16:48:52.825Z,3.20
2018-09-08T16:51:21.138Z,2.43
2018-09-08T16:53:49.422Z,2.57
2018-09-08T16:56:17.704Z,2.90
2018-09-08T16:58:47.109Z,3.20
2018-09-08T17:01:15.430Z,2.30
2018-09-08T17:03:43.703Z,2.90
2018-09-08T17:06:12.004Z,2.70
2018-09-08T17:08:40.259Z,2.87
2018-09-08T17:11:08.563Z,2.97
2018-09-08T17:13:37.913Z,3.10
2018-09-08T17:16:06.492Z,2.87
2018-09-08T17:18:34.801Z,2.37
2018-09-08T17:21:03.105Z,2.90
2018-09-08T17:23:31.406Z,3.27
2018-09-08T17:25:59.706Z,3.17
2018-09-08T17:28:30.057Z,2.93
2018-09-08T17:30:58.333Z,3.20
2018-09-08T17:33:27.638Z,2.83
2018-09-08T17:35:55.969Z,2.50
2018-09-08T17:38:25.250Z,3.43
2018-09-08T17:40:53.530Z,3.93
2018-09-08T17:43:21.818Z,4.07
2018-09-08T17:45:51.177Z,3.93
2018-09-08T17:48:19.469Z,4.27
2018-09-08T17:50:47.732Z,3.83
2018-09-08T17:53:16.037Z,3.67
2018-09-08T17:55:47.786Z,4.03
2018-09-08T17:58:16.126Z,3.80
2018-09-08T18:00:44.415Z,3.90
2018-09-08T18:03:12.725Z,4.90
2018-09-08T18:05:42.065Z,4.23
2018-09-08T18:08:10.698Z,3.90
2018-09-08T18:10:40.031Z,5.03
2018-09-08T18:13:08.329Z,4.67
2018-09-08T18:16:39.774Z,4.87
2018-09-08T18:19:08.049Z,5.37
2018-09-08T18:21:36.327Z,5.30
2018-09-08T18:24:04.623Z,4.73
2018-09-08T18:26:32.893Z,4.70
2018-09-08T18:29:01.222Z,5.40
2018-09-08T18:31:29.986Z,4.50
2018-09-08T18:33:58.293Z,4.50
2018-09-08T18:36:26.653Z,4.23
2018-09-08T18:38:54.949Z,4.50
2018-09-08T18:41:24.304Z,5.23
2018-09-08T18:43:52.533Z,4.73
2018-09-08T18:46:20.805Z,5.40
2018-09-08T18:48:50.097Z,4.77
2018-09-08T18:51:18.455Z,4.80
2018-09-08T18:53:46.710Z,5.40
2018-09-08T18:56:15.006Z,6.07
2018-09-08T18:58:43.264Z,7.40
2018-09-08T19:01:11.585Z,8.37
2018-09-08T19:03:39.849Z,11.00
2018-09-08T19:06:08.161Z,10.40
2018-09-08T19:08:42.889Z,10.23
2018-09-08T19:11:11.929Z,9.97
2018-09-08T19:13:40.186Z,9.37
2018-09-08T19:16:08.509Z,8.47
2018-09-08T19:18:36.766Z,7.83
2018-09-08T19:21:05.397Z,10.40
2018-09-08T19:23:33.673Z,9.30
2018-09-08T19:26:02.108Z,6.80
2018-09-08T19:28:30.366Z,7.43
2018-09-08T19:30:58.637Z,6.60
2018-09-08T19:33:26.998Z,5.80
2018-09-08T19:35:55.269Z,6.63
2018-09-08T19:38:23.561Z,6.13
2018-09-08T19:40:51.841Z,5.50
2018-09-08T19:43:20.161Z,4.70
2018-09-08T19:45:48.430Z,5.33
2018-09-08T19:48:17.957Z,5.23
2018-09-08T19:50:46.333Z,4.87
2018-09-08T19:53:20.037Z,4.80
2018-09-08T19:55:48.373Z,5.00
2018-09-08T19:58:22.953Z,6.23
2018-09-08T20:00:51.434Z,6.20
2018-09-08T20:03:19.685Z,4.97
2018-09-08T20:05:47.922Z,5.27
2018-09-08T20:08:16.185Z,5.87
2018-09-08T20:10:44.456Z,5.60
2018-09-08T20:13:12.733Z,5.87
2018-09-08T20:15:41.060Z,5.80
2018-09-08T20:18:09.337Z,5.50
2018-09-08T20:20:37.585Z,4.90
2018-09-08T20:23:06.937Z,4.97
2018-09-08T20:25:35.269Z,5.00
2018-09-08T20:28:03.569Z,4.60
2018-09-08T20:30:31.822Z,4.40
2018-09-08T20:33:00.101Z,5.37
2018-09-08T20:35:28.373Z,4.40
2018-09-08T20:37:56.677Z,5.15
2018-09-08T20:40:24.947Z,4.57
2018-09-08T20:42:53.240Z,4.43
2018-09-08T20:45:21.514Z,5.33
2018-09-08T20:47:49.806Z,5.60
2018-09-08T20:50:18.099Z,6.70
2018-09-08T20:52:46.345Z,5.20
2018-09-08T20:55:14.597Z,5.07
2018-09-08T20:57:42.857Z,4.50
2018-09-08T21:00:11.485Z,4.27
2018-09-08T21:02:39.746Z,4.80
2018-09-08T21:05:08.021Z,5.50
2018-09-08T21:07:36.291Z,4.67
2018-09-08T21:10:04.808Z,5.37
2018-09-08T21:12:33.060Z,5.80
2018-09-08T21:15:01.341Z,5.70
2018-09-08T21:17:29.593Z,4.93
2018-09-08T21:19:57.873Z,4.63
2018-09-08T21:22:26.379Z,4.60
2018-09-08T21:24:55.691Z,4.50
2018-09-08T21:27:24.181Z,5.20
2018-09-08T21:29:52.631Z,4.93
2018-09-08T21:32:20.893Z,5.17
2018-09-08T21:34:49.195Z,5.00
2018-09-08T21:37:18.509Z,4.67
2018-09-08T21:39:46.767Z,4.87
2018-09-08T21:42:15.041Z,5.27
2018-09-08T21:44:43.290Z,5.47
2018-09-08T21:47:11.581Z,4.50
2018-09-08T21:49:39.905Z,4.97
2018-09-08T21:52:08.193Z,5.00
2018-09-08T21:54:36.469Z,4.93
2018-09-08T21:57:04.741Z,4.23
2018-09-08T21:59:32.989Z,4.57
2018-09-08T22:02:01.493Z,4.83
2018-09-08T22:04:29.758Z,4.70
2018-09-08T22:06:58.129Z,4.73
2018-09-08T22:09:26.470Z,5.20
2018-09-08T22:11:54.782Z,4.73
2018-09-08T22:14:23.090Z,4.55
2018-09-08T22:16:51.342Z,4.30
2018-09-08T22:19:19.642Z,4.77
2018-09-08T22:21:47.893Z,4.53
2018-09-08T22:24:16.191Z,3.93
2018-09-08T22:26:45.564Z,4.33
2018-09-08T22:29:13.840Z,4.70
2018-09-08T22:31:42.098Z,4.73
2018-09-08T22:34:11.125Z,4.90
2018-09-08T22:36:39.389Z,4.60
2018-09-08T22:39:09.020Z,4.50
2018-09-08T22:41:37.273Z,4.90
2018-09-08T22:44:05.557Z,4.80
2018-09-08T22:46:33.820Z,4.67
2018-09-08T22:49:02.109Z,5.00
2018-09-08T22:51:30.424Z,5.30
2018-09-08T22:53:58.652Z,5.10
2018-09-08T22:56:29.566Z,4.50
2018-09-08T22:58:57.878Z,5.27
2018-09-08T23:01:26.145Z,4.83
2018-09-08T23:03:54.456Z,4.90
2018-09-08T23:06:22.697Z,4.50
2018-09-08T23:08:50.993Z,5.30
2018-09-08T23:11:19.265Z,5.67
2018-09-08T23:13:47.513Z,6.23
2018-09-08T23:16:15.806Z,4.73
2018-09-08T23:18:45.051Z,4.60
2018-09-08T23:21:13.334Z,5.07
2018-09-08T23:23:41.585Z,5.50
2018-09-08T23:26:09.871Z,5.27
2018-09-08T23:28:38.121Z,5.73
2018-09-08T23:31:06.449Z,6.37
2018-09-08T23:33:34.708Z,4.67
2018-09-08T23:36:03.001Z,5.30
2018-09-08T23:38:33.297Z,5.70
2018-09-08T23:41:01.653Z,4.97
2018-09-08T23:43:29.899Z,5.63
2018-09-08T23:45:58.153Z,6.63
2018-09-08T23:48:26.414Z,6.17
2018-09-08T23:50:54.676Z,5.77
2018-09-08T23:53:22.938Z,6.00
2018-09-08T23:55:53.226Z,5.80
2018-09-08T23:58:21.566Z,5.93
